sensor_id;sensor_type;location;lat;lon;timestamp;pressure;altitude;pressure_sealevel;temperature
63113;BMP280;49206;48.020;21.378;2022-12-13T00:00:47;100081.94;;;-3.11
63113;BMP280;49206;48.020;21.378;2022-12-13T00:01:51;100079.09;;;-3.14
63113;BMP280;49206;48.020;21.378;2022-12-13T00:02:54;100079.25;;;-3.21
63113;BMP280;49206;48.020;21.378;2022-12-13T00:03:59;100080.28;;;-3.22
63113;BMP280;49206;48.020;21.378;2022-12-13T00:05:01;100079.38;;;-3.11
63113;BMP280;49206;48.020;21.378;2022-12-13T00:06:06;100081.66;;;-3.14
63113;BMP280;49206;48.020;21.378;2022-12-13T00:07:10;100082.97;;;-3.12
63113;BMP280;49206;48.020;21.378;2022-12-13T00:08:13;100085.56;;;-3.12
63113;BMP280;49206;48.020;21.378;2022-12-13T00:09:17;100083.69;;;-3.16
63113;BMP280;49206;48.020;21.378;2022-12-13T00:10:20;100087.84;;;-3.15
63113;BMP280;49206;48.020;21.378;2022-12-13T00:11:23;100085.78;;;-3.13
63113;BMP280;49206;48.020;21.378;2022-12-13T00:12:25;100084.75;;;-3.12
63113;BMP280;49206;48.020;21.378;2022-12-13T00:13:28;100085.75;;;-3.18
63113;BMP280;49206;48.020;21.378;2022-12-13T00:14:31;100091.19;;;-3.15
63113;BMP280;49206;48.020;21.378;2022-12-13T00:15:33;100084.84;;;-3.29
63113;BMP280;49206;48.020;21.378;2022-12-13T00:16:36;100095.44;;;-3.25
63113;BMP280;49206;48.020;21.378;2022-12-13T00:17:39;100095.38;;;-3.30
63113;BMP280;49206;48.020;21.378;2022-12-13T00:18:42;100089.75;;;-3.27
63113;BMP280;49206;48.020;21.378;2022-12-13T00:19:46;100091.34;;;-3.21
63113;BMP280;49206;48.020;21.378;2022-12-13T00:20:48;100094.81;;;-3.16
63113;BMP280;49206;48.020;21.378;2022-12-13T00:21:51;100093.78;;;-3.15
63113;BMP280;49206;48.020;21.378;2022-12-13T00:22:53;100094.03;;;-3.16
63113;BMP280;49206;48.020;21.378;2022-12-13T00:23:56;100101.03;;;-3.12
63113;BMP280;49206;48.020;21.378;2022-12-13T00:24:59;100102.31;;;-3.14
63113;BMP280;49206;48.020;21.378;2022-12-13T00:26:03;100102.03;;;-3.18
63113;BMP280;49206;48.020;21.378;2022-12-13T00:27:06;100101.75;;;-3.16
63113;BMP280;49206;48.020;21.378;2022-12-13T00:28:10;100096.50;;;-3.21
63113;BMP280;49206;48.020;21.378;2022-12-13T00:29:12;100098.34;;;-3.22
63113;BMP280;49206;48.020;21.378;2022-12-13T00:30:15;100100.41;;;-3.19
63113;BMP280;49206;48.020;21.378;2022-12-13T00:31:18;100099.66;;;-3.19
63113;BMP280;49206;48.020;21.378;2022-12-13T00:32:41;100102.78;;;-3.17
63113;BMP280;49206;48.020;21.378;2022-12-13T00:33:43;100101.53;;;-3.15
63113;BMP280;49206;48.020;21.378;2022-12-13T00:34:46;100098.66;;;-3.18
63113;BMP280;49206;48.020;21.378;2022-12-13T00:35:48;100098.09;;;-3.20
63113;BMP280;49206;48.020;21.378;2022-12-13T00:36:55;100099.19;;;-3.16
63113;BMP280;49206;48.020;21.378;2022-12-13T00:38:00;100099.72;;;-3.14
63113;BMP280;49206;48.020;21.378;2022-12-13T00:39:03;100095.09;;;-3.12
63113;BMP280;49206;48.020;21.378;2022-12-13T00:40:06;100097.19;;;-3.09
63113;BMP280;49206;48.020;21.378;2022-12-13T00:41:19;100101.81;;;-3.11
63113;BMP280;49206;48.020;21.378;2022-12-13T00:42:21;100101.56;;;-3.10
63113;BMP280;49206;48.020;21.378;2022-12-13T00:43:23;100100.56;;;-3.09
63113;BMP280;49206;48.020;21.378;2022-12-13T00:44:26;100104.69;;;-3.08
63113;BMP280;49206;48.020;21.378;2022-12-13T00:45:29;100107.28;;;-3.08
63113;BMP280;49206;48.020;21.378;2022-12-13T00:46:31;100108.56;;;-3.10
63113;BMP280;49206;48.020;21.378;2022-12-13T00:47:35;100104.47;;;-3.06
63113;BMP280;49206;48.020;21.378;2022-12-13T00:48:40;100104.69;;;-3.08
63113;BMP280;49206;48.020;21.378;2022-12-13T00:49:42;100108.31;;;-3.09
63113;BMP280;49206;48.020;21.378;2022-12-13T00:50:45;100114.78;;;-3.06
63113;BMP280;49206;48.020;21.378;2022-12-13T00:51:47;100107.34;;;-3.03
63113;BMP280;49206;48.020;21.378;2022-12-13T00:52:50;100114.56;;;-3.00
63113;BMP280;49206;48.020;21.378;2022-12-13T00:53:55;100107.34;;;-3.03
63113;BMP280;49206;48.020;21.378;2022-12-13T00:54:58;100109.91;;;-3.03
63113;BMP280;49206;48.020;21.378;2022-12-13T00:56:01;100112.25;;;-3.01
63113;BMP280;49206;48.020;21.378;2022-12-13T00:57:03;100112.25;;;-3.01
63113;BMP280;49206;48.020;21.378;2022-12-13T00:58:06;100112.44;;;-3.08
63113;BMP280;49206;48.020;21.378;2022-12-13T00:59:12;100109.56;;;-3.11
63113;BMP280;49206;48.020;21.378;2022-12-13T01:00:17;100112.63;;;-3.14
63113;BMP280;49206;48.020;21.378;2022-12-13T01:01:25;100116.72;;;-3.18
63113;BMP280;49206;48.020;21.378;2022-12-13T01:02:28;100113.03;;;-3.22
63113;BMP280;49206;48.020;21.378;2022-12-13T01:03:31;100110.63;;;-3.29
63113;BMP280;49206;48.020;21.378;2022-12-13T01:04:34;100114.53;;;-3.26
63113;BMP280;49206;48.020;21.378;2022-12-13T01:05:36;100118.19;;;-3.22
63113;BMP280;49206;48.020;21.378;2022-12-13T01:12:42;100119.78;;;-3.43
63113;BMP280;49206;48.020;21.378;2022-12-13T01:13:45;100115.41;;;-3.42
63113;BMP280;49206;48.020;21.378;2022-12-13T01:14:47;100114.81;;;-3.44
63113;BMP280;49206;48.020;21.378;2022-12-13T01:15:56;100118.97;;;-3.43
63113;BMP280;49206;48.020;21.378;2022-12-13T01:16:59;100120.22;;;-3.46
63113;BMP280;49206;48.020;21.378;2022-12-13T01:18:02;100120.63;;;-3.37
63113;BMP280;49206;48.020;21.378;2022-12-13T01:19:05;100120.06;;;-3.39
63113;BMP280;49206;48.020;21.378;2022-12-13T01:20:08;100119.59;;;-3.36
63113;BMP280;49206;48.020;21.378;2022-12-13T01:21:15;100115.69;;;-3.39
63113;BMP280;49206;48.020;21.378;2022-12-13T01:22:18;100123.97;;;-3.37
63113;BMP280;49206;48.020;21.378;2022-12-13T01:23:20;100116.47;;;-3.38
63113;BMP280;49206;48.020;21.378;2022-12-13T01:24:23;100118.28;;;-3.39
63113;BMP280;49206;48.020;21.378;2022-12-13T01:25:26;100117.09;;;-3.48
63113;BMP280;49206;48.020;21.378;2022-12-13T01:26:31;100116.25;;;-3.53
63113;BMP280;49206;48.020;21.378;2022-12-13T01:27:35;100115.44;;;-3.59
63113;BMP280;49206;48.020;21.378;2022-12-13T01:28:39;100122.44;;;-3.54
63113;BMP280;49206;48.020;21.378;2022-12-13T01:29:42;100122.78;;;-3.67
63113;BMP280;49206;48.020;21.378;2022-12-13T01:30:44;100115.44;;;-3.59
63113;BMP280;49206;48.020;21.378;2022-12-13T01:31:55;100108.69;;;-3.60
63113;BMP280;49206;48.020;21.378;2022-12-13T01:32:57;100117.75;;;-3.57
63113;BMP280;49206;48.020;21.378;2022-12-13T01:34:00;100117.84;;;-3.52
63113;BMP280;49206;48.020;21.378;2022-12-13T01:35:11;100116.31;;;-3.48
63113;BMP280;49206;48.020;21.378;2022-12-13T01:36:18;100116.06;;;-3.47
63113;BMP280;49206;48.020;21.378;2022-12-13T01:37:29;100119.69;;;-3.48
63113;BMP280;49206;48.020;21.378;2022-12-13T01:38:31;100119.44;;;-3.46
63113;BMP280;49206;48.020;21.378;2022-12-13T01:39:39;100121.78;;;-3.45
63113;BMP280;49206;48.020;21.378;2022-12-13T01:40:46;100119.63;;;-3.53
63113;BMP280;49206;48.020;21.378;2022-12-13T01:41:52;100121.66;;;-3.55
63113;BMP280;49206;48.020;21.378;2022-12-13T01:43:01;100123.53;;;-3.50
63113;BMP280;49206;48.020;21.378;2022-12-13T01:45:55;100124.81;;;-3.69
63113;BMP280;49206;48.020;21.378;2022-12-13T01:46:57;100131.31;;;-3.67
63113;BMP280;49206;48.020;21.378;2022-12-13T01:48:03;100129.41;;;-3.71
63113;BMP280;49206;48.020;21.378;2022-12-13T01:49:12;100132.53;;;-3.69
63113;BMP280;49206;48.020;21.378;2022-12-13T01:50:26;100136.91;;;-3.70
63113;BMP280;49206;48.020;21.378;2022-12-13T01:51:38;100137.50;;;-3.68
63113;BMP280;49206;48.020;21.378;2022-12-13T01:52:44;100135.13;;;-3.69
63113;BMP280;49206;48.020;21.378;2022-12-13T01:53:48;100131.00;;;-3.70
63113;BMP280;49206;48.020;21.378;2022-12-13T01:54:54;100132.78;;;-3.71
63113;BMP280;49206;48.020;21.378;2022-12-13T01:56:10;100131.53;;;-3.68
63113;BMP280;49206;48.020;21.378;2022-12-13T01:57:16;100141.84;;;-3.68
63113;BMP280;49206;48.020;21.378;2022-12-13T01:58:19;100135.13;;;-3.69
63113;BMP280;49206;48.020;21.378;2022-12-13T01:59:22;100133.56;;;-3.70
63113;BMP280;49206;48.020;21.378;2022-12-13T02:00:26;100141.63;;;-3.67
63113;BMP280;49206;48.020;21.378;2022-12-13T02:01:29;100144.50;;;-3.63
63113;BMP280;49206;48.020;21.378;2022-12-13T02:02:32;100144.75;;;-3.65
63113;BMP280;49206;48.020;21.378;2022-12-13T02:03:35;100139.81;;;-3.66
63113;BMP280;49206;48.020;21.378;2022-12-13T02:06:10;100148.72;;;-3.74
63113;BMP280;49206;48.020;21.378;2022-12-13T02:07:17;100143.78;;;-3.75
63113;BMP280;49206;48.020;21.378;2022-12-13T02:08:25;100148.72;;;-3.74
63113;BMP280;49206;48.020;21.378;2022-12-13T02:09:27;100140.63;;;-3.82
63113;BMP280;49206;48.020;21.378;2022-12-13T02:10:31;100152.03;;;-3.78
63113;BMP280;49206;48.020;21.378;2022-12-13T02:11:34;100144.28;;;-3.78
63113;BMP280;49206;48.020;21.378;2022-12-13T02:12:39;100152.25;;;-3.80
63113;BMP280;49206;48.020;21.378;2022-12-13T02:13:42;100152.19;;;-3.85
63113;BMP280;49206;48.020;21.378;2022-12-13T02:14:44;100142.81;;;-3.91
63113;BMP280;49206;48.020;21.378;2022-12-13T02:16:05;100145.47;;;-4.02
63113;BMP280;49206;48.020;21.378;2022-12-13T02:20:22;100154.81;;;-4.13
63113;BMP280;49206;48.020;21.378;2022-12-13T02:21:56;100160.13;;;-4.19
63113;BMP280;49206;48.020;21.378;2022-12-13T02:27:10;100165.00;;;-4.06
63113;BMP280;49206;48.020;21.378;2022-12-13T02:31:09;100163.72;;;-4.20
63113;BMP280;49206;48.020;21.378;2022-12-13T02:34:00;100160.22;;;-4.31
63113;BMP280;49206;48.020;21.378;2022-12-13T02:35:08;100164.13;;;-4.28
63113;BMP280;49206;48.020;21.378;2022-12-13T02:43:35;100164.78;;;-4.33
63113;BMP280;49206;48.020;21.378;2022-12-13T02:44:54;100166.16;;;-4.42
63113;BMP280;49206;48.020;21.378;2022-12-13T02:46:00;100173.22;;;-4.37
63113;BMP280;49206;48.020;21.378;2022-12-13T02:47:07;100167.59;;;-4.34
63113;BMP280;49206;48.020;21.378;2022-12-13T02:48:26;100175.06;;;-4.33
63113;BMP280;49206;48.020;21.378;2022-12-13T02:49:33;100169.22;;;-4.45
63113;BMP280;49206;48.020;21.378;2022-12-13T02:50:37;100181.88;;;-4.43
63113;BMP280;49206;48.020;21.378;2022-12-13T02:51:41;100179.84;;;-4.41
63113;BMP280;49206;48.020;21.378;2022-12-13T02:52:45;100182.88;;;-4.44
63113;BMP280;49206;48.020;21.378;2022-12-13T02:53:47;100184.22;;;-4.53
63113;BMP280;49206;48.020;21.378;2022-12-13T02:54:53;100180.31;;;-4.56
63113;BMP280;49206;48.020;21.378;2022-12-13T02:55:55;100182.91;;;-4.56
63113;BMP280;49206;48.020;21.378;2022-12-13T02:57:02;100189.72;;;-4.50
63113;BMP280;49206;48.020;21.378;2022-12-13T02:58:04;100186.59;;;-4.52
63113;BMP280;49206;48.020;21.378;2022-12-13T02:59:11;100184.50;;;-4.55
63113;BMP280;49206;48.020;21.378;2022-12-13T03:00:20;100189.28;;;-4.58
63113;BMP280;49206;48.020;21.378;2022-12-13T03:04:31;100183.94;;;-4.57
63113;BMP280;49206;48.020;21.378;2022-12-13T03:07:38;100179.56;;;-4.56
63113;BMP280;49206;48.020;21.378;2022-12-13T03:09:57;100191.88;;;-4.58
63113;BMP280;49206;48.020;21.378;2022-12-13T03:11:07;100194.69;;;-4.60
63113;BMP280;49206;48.020;21.378;2022-12-13T03:12:50;100197.50;;;-4.61
63113;BMP280;49206;48.020;21.378;2022-12-13T03:14:14;100199.81;;;-4.60
63113;BMP280;49206;48.020;21.378;2022-12-13T03:15:44;100192.75;;;-4.53
63113;BMP280;49206;48.020;21.378;2022-12-13T03:16:51;100192.91;;;-4.59
63113;BMP280;49206;48.020;21.378;2022-12-13T03:18:02;100197.16;;;-4.65
63113;BMP280;49206;48.020;21.378;2022-12-13T03:19:08;100192.91;;;-4.71
63113;BMP280;49206;48.020;21.378;2022-12-13T03:20:16;100194.41;;;-4.86
63113;BMP280;49206;48.020;21.378;2022-12-13T03:21:25;100201.78;;;-4.78
63113;BMP280;49206;48.020;21.378;2022-12-13T03:22:27;100190.38;;;-4.82
63113;BMP280;49206;48.020;21.378;2022-12-13T03:23:30;100204.81;;;-4.81
63113;BMP280;49206;48.020;21.378;2022-12-13T03:24:34;100194.41;;;-4.86
63113;BMP280;49206;48.020;21.378;2022-12-13T03:25:46;100205.03;;;-4.83
63113;BMP280;49206;48.020;21.378;2022-12-13T03:26:51;100203.84;;;-4.80
63113;BMP280;49206;48.020;21.378;2022-12-13T03:27:57;100207.97;;;-4.79
63113;BMP280;49206;48.020;21.378;2022-12-13T03:29:03;100207.16;;;-4.80
63113;BMP280;49206;48.020;21.378;2022-12-13T03:30:07;100205.84;;;-4.82
63113;BMP280;49206;48.020;21.378;2022-12-13T03:31:10;100208.19;;;-4.81
63113;BMP280;49206;48.020;21.378;2022-12-13T03:32:13;100202.34;;;-4.76
63113;BMP280;49206;48.020;21.378;2022-12-13T03:33:16;100201.00;;;-4.79
63113;BMP280;49206;48.020;21.378;2022-12-13T03:34:18;100203.13;;;-4.76
63113;BMP280;49206;48.020;21.378;2022-12-13T03:35:24;100191.81;;;-4.75
63113;BMP280;49206;48.020;21.378;2022-12-13T03:36:46;100206.00;;;-4.72
63113;BMP280;49206;48.020;21.378;2022-12-13T03:37:49;100199.22;;;-4.78
63113;BMP280;49206;48.020;21.378;2022-12-13T03:38:53;100194.00;;;-4.83
63113;BMP280;49206;48.020;21.378;2022-12-13T03:39:56;100201.50;;;-4.93
63113;BMP280;49206;48.020;21.378;2022-12-13T03:41:12;100196.34;;;-4.93
63113;BMP280;49206;48.020;21.378;2022-12-13T03:42:15;100200.69;;;-4.94
63113;BMP280;49206;48.020;21.378;2022-12-13T03:43:18;100204.38;;;-4.90
63113;BMP280;49206;48.020;21.378;2022-12-13T03:44:23;100197.09;;;-4.93
63113;BMP280;49206;48.020;21.378;2022-12-13T03:45:32;100194.91;;;-5.01
63113;BMP280;49206;48.020;21.378;2022-12-13T03:46:34;100201.63;;;-5.00
63113;BMP280;49206;48.020;21.378;2022-12-13T03:47:37;100194.44;;;-4.98
63113;BMP280;49206;48.020;21.378;2022-12-13T03:48:40;100197.69;;;-4.91
63113;BMP280;49206;48.020;21.378;2022-12-13T03:49:43;100199.47;;;-4.91
63113;BMP280;49206;48.020;21.378;2022-12-13T03:50:46;100199.38;;;-4.96
63113;BMP280;49206;48.020;21.378;2022-12-13T03:51:48;100202.38;;;-4.99
63113;BMP280;49206;48.020;21.378;2022-12-13T03:52:57;100202.47;;;-5.06
63113;BMP280;49206;48.020;21.378;2022-12-13T03:54:00;100200.47;;;-5.04
63113;BMP280;49206;48.020;21.378;2022-12-13T03:55:03;100202.47;;;-5.06
63113;BMP280;49206;48.020;21.378;2022-12-13T03:56:06;100203.50;;;-5.07
63113;BMP280;49206;48.020;21.378;2022-12-13T03:57:08;100210.19;;;-5.06
63113;BMP280;49206;48.020;21.378;2022-12-13T03:58:11;100214.59;;;-5.07
63113;BMP280;49206;48.020;21.378;2022-12-13T03:59:14;100207.88;;;-5.07
63113;BMP280;49206;48.020;21.378;2022-12-13T04:00:17;100207.88;;;-5.07
63113;BMP280;49206;48.020;21.378;2022-12-13T04:01:19;100208.34;;;-5.11
63113;BMP280;49206;48.020;21.378;2022-12-13T04:02:23;100215.03;;;-5.10
63113;BMP280;49206;48.020;21.378;2022-12-13T04:03:33;100210.91;;;-5.11
63113;BMP280;49206;48.020;21.378;2022-12-13T04:04:35;100214.59;;;-5.07
63113;BMP280;49206;48.020;21.378;2022-12-13T04:05:38;100210.47;;;-5.07
63113;BMP280;49206;48.020;21.378;2022-12-13T04:06:41;100212.00;;;-5.07
63113;BMP280;49206;48.020;21.378;2022-12-13T04:07:44;100212.56;;;-5.05
63113;BMP280;49206;48.020;21.378;2022-12-13T04:08:50;100216.94;;;-5.05
63113;BMP280;49206;48.020;21.378;2022-12-13T04:09:53;100224.78;;;-5.12
63113;BMP280;49206;48.020;21.378;2022-12-13T04:10:56;100216.28;;;-5.12
63113;BMP280;49206;48.020;21.378;2022-12-13T04:11:58;100218.31;;;-5.14
63113;BMP280;49206;48.020;21.378;2022-12-13T04:13:19;100213.59;;;-5.17
63113;BMP280;49206;48.020;21.378;2022-12-13T04:14:33;100216.41;;;-5.19
63113;BMP280;49206;48.020;21.378;2022-12-13T04:15:36;100217.38;;;-5.20
63113;BMP280;49206;48.020;21.378;2022-12-13T04:16:38;100213.69;;;-5.24
63113;BMP280;49206;48.020;21.378;2022-12-13T04:17:41;100220.19;;;-5.21
63113;BMP280;49206;48.020;21.378;2022-12-13T04:18:52;100216.28;;;-5.24
63113;BMP280;49206;48.020;21.378;2022-12-13T04:19:54;100216.28;;;-5.24
63113;BMP280;49206;48.020;21.378;2022-12-13T04:20:57;100210.56;;;-5.26
63113;BMP280;49206;48.020;21.378;2022-12-13T04:22:00;100213.25;;;-5.21
63113;BMP280;49206;48.020;21.378;2022-12-13T04:23:05;100215.25;;;-5.23
63113;BMP280;49206;48.020;21.378;2022-12-13T04:24:11;100213.81;;;-5.19
63113;BMP280;49206;48.020;21.378;2022-12-13T04:25:13;100215.94;;;-5.16
63113;BMP280;49206;48.020;21.378;2022-12-13T04:26:16;100215.94;;;-5.16
63113;BMP280;49206;48.020;21.378;2022-12-13T04:27:19;100214.28;;;-5.22
63113;BMP280;49206;48.020;21.378;2022-12-13T04:28:21;100214.94;;;-5.15
63113;BMP280;49206;48.020;21.378;2022-12-13T04:29:24;100225.00;;;-5.13
63113;BMP280;49206;48.020;21.378;2022-12-13T04:30:35;100220.88;;;-5.14
63113;BMP280;49206;48.020;21.378;2022-12-13T04:31:39;100226.78;;;-5.14
63113;BMP280;49206;48.020;21.378;2022-12-13T04:32:41;100222.97;;;-5.23
63113;BMP280;49206;48.020;21.378;2022-12-13T04:33:44;100227.16;;;-5.33
63113;BMP280;49206;48.020;21.378;2022-12-13T04:34:47;100223.19;;;-5.36
63113;BMP280;49206;48.020;21.378;2022-12-13T04:35:50;100225.22;;;-5.38
63113;BMP280;49206;48.020;21.378;2022-12-13T04:36:53;100222.75;;;-5.44
63113;BMP280;49206;48.020;21.378;2022-12-13T04:37:56;100226.22;;;-5.50
63113;BMP280;49206;48.020;21.378;2022-12-13T04:39:03;100222.09;;;-5.40
63113;BMP280;49206;48.020;21.378;2022-12-13T04:40:23;100228.22;;;-5.41
63113;BMP280;49206;48.020;21.378;2022-12-13T04:41:26;100227.91;;;-5.44
63113;BMP280;49206;48.020;21.378;2022-12-13T04:42:35;100234.84;;;-5.45
63113;BMP280;49206;48.020;21.378;2022-12-13T04:43:50;100238.50;;;-5.41
63113;BMP280;49206;48.020;21.378;2022-12-13T04:44:54;100234.50;;;-5.48
63113;BMP280;49206;48.020;21.378;2022-12-13T04:45:57;100244.78;;;-5.48
63113;BMP280;49206;48.020;21.378;2022-12-13T04:47:00;100236.06;;;-5.47
63113;BMP280;49206;48.020;21.378;2022-12-13T04:48:04;100248.91;;;-5.47
63113;BMP280;49206;48.020;21.378;2022-12-13T04:49:07;100245.44;;;-5.53
63113;BMP280;49206;48.020;21.378;2022-12-13T04:50:10;100254.94;;;-5.53
63113;BMP280;49206;48.020;21.378;2022-12-13T04:51:14;100253.69;;;-5.51
63113;BMP280;49206;48.020;21.378;2022-12-13T04:52:17;100252.06;;;-5.45
63113;BMP280;49206;48.020;21.378;2022-12-13T04:53:23;100250.03;;;-5.43
63113;BMP280;49206;48.020;21.378;2022-12-13T04:54:25;100248.25;;;-5.43
63113;BMP280;49206;48.020;21.378;2022-12-13T04:55:37;100247.22;;;-5.65
63113;BMP280;49206;48.020;21.378;2022-12-13T04:56:42;100240.06;;;-5.63
63113;BMP280;49206;48.020;21.378;2022-12-13T04:57:44;100243.72;;;-5.70
63113;BMP280;49206;48.020;21.378;2022-12-13T04:59:05;100232.44;;;-5.69
63113;BMP280;49206;48.020;21.378;2022-12-13T05:00:10;100237.22;;;-5.73
63113;BMP280;49206;48.020;21.378;2022-12-13T05:01:14;100235.34;;;-5.77
63113;BMP280;49206;48.020;21.378;2022-12-13T05:02:17;100244.94;;;-5.73
63113;BMP280;49206;48.020;21.378;2022-12-13T05:03:25;100241.59;;;-5.73
63113;BMP280;49206;48.020;21.378;2022-12-13T05:04:27;100239.56;;;-5.71
63113;BMP280;49206;48.020;21.378;2022-12-13T05:05:38;100248.84;;;-5.70
63113;BMP280;49206;48.020;21.378;2022-12-13T05:06:41;100244.16;;;-5.73
63113;BMP280;49206;48.020;21.378;2022-12-13T05:07:43;100239.13;;;-5.80
63113;BMP280;49206;48.020;21.378;2022-12-13T05:08:48;100240.47;;;-5.77
63113;BMP280;49206;48.020;21.378;2022-12-13T05:09:50;100239.56;;;-5.71
63113;BMP280;49206;48.020;21.378;2022-12-13T05:10:53;100240.16;;;-5.69
63113;BMP280;49206;48.020;21.378;2022-12-13T05:11:56;100242.63;;;-5.74
63113;BMP280;49206;48.020;21.378;2022-12-13T05:13:03;100246.25;;;-5.82
63113;BMP280;49206;48.020;21.378;2022-12-13T05:14:05;100242.63;;;-5.74
63113;BMP280;49206;48.020;21.378;2022-12-13T05:15:08;100249.44;;;-5.68
63113;BMP280;49206;48.020;21.378;2022-12-13T05:16:12;100248.41;;;-5.67
63113;BMP280;49206;48.020;21.378;2022-12-13T05:17:14;100245.03;;;-5.68
63113;BMP280;49206;48.020;21.378;2022-12-13T05:18:18;100249.56;;;-5.63
63113;BMP280;49206;48.020;21.378;2022-12-13T05:19:20;100249.56;;;-5.63
63113;BMP280;49206;48.020;21.378;2022-12-13T05:20:36;100247.06;;;-5.70
63113;BMP280;49206;48.020;21.378;2022-12-13T05:21:39;100253.16;;;-5.64
63113;BMP280;49206;48.020;21.378;2022-12-13T05:22:42;100246.19;;;-5.64
63113;BMP280;49206;48.020;21.378;2022-12-13T05:23:45;100252.22;;;-5.70
63113;BMP280;49206;48.020;21.378;2022-12-13T05:24:48;100249.84;;;-5.71
63113;BMP280;49206;48.020;21.378;2022-12-13T05:25:50;100259.72;;;-5.68
63113;BMP280;49206;48.020;21.378;2022-12-13T05:26:54;100261.88;;;-5.65
63113;BMP280;49206;48.020;21.378;2022-12-13T05:27:56;100257.81;;;-5.61
63113;BMP280;49206;48.020;21.378;2022-12-13T05:29:01;100257.84;;;-5.50
63113;BMP280;49206;48.020;21.378;2022-12-13T05:30:04;100264.22;;;-5.41
63113;BMP280;49206;48.020;21.378;2022-12-13T05:31:10;100250.31;;;-5.33
63113;BMP280;49206;48.020;21.378;2022-12-13T05:32:24;100255.75;;;-5.30
63113;BMP280;49206;48.020;21.378;2022-12-13T05:33:27;100250.16;;;-5.27
63113;BMP280;49206;48.020;21.378;2022-12-13T05:34:31;100245.38;;;-5.23
63113;BMP280;49206;48.020;21.378;2022-12-13T05:35:34;100245.28;;;-5.17
63113;BMP280;49206;48.020;21.378;2022-12-13T05:36:37;100242.91;;;-5.18
63113;BMP280;49206;48.020;21.378;2022-12-13T05:37:40;100238.09;;;-5.15
63113;BMP280;49206;48.020;21.378;2022-12-13T05:38:43;100247.03;;;-5.06
63113;BMP280;49206;48.020;21.378;2022-12-13T05:39:48;100239.09;;;-5.04
63113;BMP280;49206;48.020;21.378;2022-12-13T05:41:14;100240.22;;;-5.00
63113;BMP280;49206;48.020;21.378;2022-12-13T05:42:17;100251.06;;;-4.98
63113;BMP280;49206;48.020;21.378;2022-12-13T05:43:20;100250.03;;;-5.09
63113;BMP280;49206;48.020;21.378;2022-12-13T05:44:23;100250.16;;;-5.27
63113;BMP280;49206;48.020;21.378;2022-12-13T05:45:26;100262.47;;;-5.29
63113;BMP280;49206;48.020;21.378;2022-12-13T05:46:29;100251.84;;;-5.21
63113;BMP280;49206;48.020;21.378;2022-12-13T05:47:31;100258.69;;;-5.15
63113;BMP280;49206;48.020;21.378;2022-12-13T05:48:40;100251.97;;;-5.16
63113;BMP280;49206;48.020;21.378;2022-12-13T05:49:43;100256.31;;;-5.16
63113;BMP280;49206;48.020;21.378;2022-12-13T05:50:45;100257.44;;;-5.12
63113;BMP280;49206;48.020;21.378;2022-12-13T05:51:48;100254.09;;;-5.13
63113;BMP280;49206;48.020;21.378;2022-12-13T05:52:50;100262.25;;;-5.16
63113;BMP280;49206;48.020;21.378;2022-12-13T05:53:53;100256.09;;;-5.15
63113;BMP280;49206;48.020;21.378;2022-12-13T05:54:58;100268.84;;;-5.20
63113;BMP280;49206;48.020;21.378;2022-12-13T05:56:02;100255.97;;;-5.20
63113;BMP280;49206;48.020;21.378;2022-12-13T05:57:05;100265.84;;;-5.17
63113;BMP280;49206;48.020;21.378;2022-12-13T05:58:08;100263.03;;;-5.15
63113;BMP280;49206;48.020;21.378;2022-12-13T05:59:15;100259.69;;;-5.16
63113;BMP280;49206;48.020;21.378;2022-12-13T06:00:20;100265.84;;;-5.17
63113;BMP280;49206;48.020;21.378;2022-12-13T06:01:31;100267.41;;;-5.16
63113;BMP280;49206;48.020;21.378;2022-12-13T06:02:38;100273.00;;;-5.19
63113;BMP280;49206;48.020;21.378;2022-12-13T06:03:40;100266.94;;;-5.24
63113;BMP280;49206;48.020;21.378;2022-12-13T06:04:43;100270.41;;;-5.30
63113;BMP280;49206;48.020;21.378;2022-12-13T06:05:46;100271.41;;;-5.31
63113;BMP280;49206;48.020;21.378;2022-12-13T06:06:49;100277.59;;;-5.32
63113;BMP280;49206;48.020;21.378;2022-12-13T06:07:53;100277.91;;;-5.29
63113;BMP280;49206;48.020;21.378;2022-12-13T06:08:59;100271.75;;;-5.28
63113;BMP280;49206;48.020;21.378;2022-12-13T06:10:05;100287.75;;;-5.26
63113;BMP280;49206;48.020;21.378;2022-12-13T06:11:15;100289.63;;;-5.21
63113;BMP280;49206;48.020;21.378;2022-12-13T06:12:33;100290.25;;;-5.19
63113;BMP280;49206;48.020;21.378;2022-12-13T06:13:49;100288.00;;;-5.16
63113;BMP280;49206;48.020;21.378;2022-12-13T06:15:02;100296.72;;;-5.17
63113;BMP280;49206;48.020;21.378;2022-12-13T06:16:22;100293.88;;;-5.27
63113;BMP280;49206;48.020;21.378;2022-12-13T06:17:25;100291.09;;;-5.25
63113;BMP280;49206;48.020;21.378;2022-12-13T06:18:32;100290.53;;;-5.39
63113;BMP280;49206;48.020;21.378;2022-12-13T06:19:36;100290.31;;;-5.37
63113;BMP280;49206;48.020;21.378;2022-12-13T06:20:38;100297.22;;;-5.38
63113;BMP280;49206;48.020;21.378;2022-12-13T06:21:41;100288.88;;;-5.33
63113;BMP280;49206;48.020;21.378;2022-12-13T06:22:47;100296.91;;;-5.30
63113;BMP280;49206;48.020;21.378;2022-12-13T06:23:50;100297.69;;;-5.29
63113;BMP280;49206;48.020;21.378;2022-12-13T06:24:52;100295.91;;;-5.29
63113;BMP280;49206;48.020;21.378;2022-12-13T06:25:55;100294.47;;;-5.25
63113;BMP280;49206;48.020;21.378;2022-12-13T06:26:58;100295.78;;;-5.22
63113;BMP280;49206;48.020;21.378;2022-12-13T06:28:01;100301.97;;;-5.23
63113;BMP280;49206;48.020;21.378;2022-12-13T06:29:04;100303.88;;;-5.19
63113;BMP280;49206;48.020;21.378;2022-12-13T06:30:07;100296.16;;;-5.19
63113;BMP280;49206;48.020;21.378;2022-12-13T06:31:10;100301.63;;;-5.15
63113;BMP280;49206;48.020;21.378;2022-12-13T06:32:13;100303.44;;;-5.16
63113;BMP280;49206;48.020;21.378;2022-12-13T06:33:15;100307.34;;;-5.13
63113;BMP280;49206;48.020;21.378;2022-12-13T06:34:24;100309.22;;;-5.09
63113;BMP280;49206;48.020;21.378;2022-12-13T06:35:27;100307.00;;;-5.05
63113;BMP280;49206;48.020;21.378;2022-12-13T06:36:33;100309.72;;;-5.00
63113;BMP280;49206;48.020;21.378;2022-12-13T06:37:35;100314.88;;;-5.00
63113;BMP280;49206;48.020;21.378;2022-12-13T06:38:38;100315.19;;;-4.96
63113;BMP280;49206;48.020;21.378;2022-12-13T06:39:46;100323.34;;;-4.99
63113;BMP280;49206;48.020;21.378;2022-12-13T06:40:51;100321.66;;;-5.06